Time;durP1;ratioP1;P1;durP2;ratioP2;P2;SDS_P1;SDS_P2;PMS_P1;PMS_P2;Temp;Humidity;BMP_temperature;BMP_pressure;BME280_temperature;BME280_humidity;BME280_pressure;Samples;Min_cycle;Max_cycle;Signal;HPM_P1;HPM_P2
2021/12/02 00:01:22;;;;;;;4.10;3.50;;;6.20;99.90;;;;;;4965689;28;20242;-85
2021/12/02 00:03:49;;;;;;;5.63;3.40;;;5.30;99.90;;;;;;4977210;28;20181;-84
2021/12/02 00:06:17;;;;;;;7.97;4.65;;;5.20;99.90;;;;;;4978517;28;20190;-84
2021/12/02 00:08:43;;;;;;;10.63;4.60;;;5.30;99.90;;;;;;4973755;28;20217;-83
2021/12/02 00:11:09;;;;;;;6.57;4.03;;;5.30;99.90;;;;;;4971596;28;20261;-84
2021/12/02 00:16:21;;;;;;;4.30;3.50;;;5.50;99.90;;;;;;4978969;28;20170;-84
2021/12/02 00:21:24;;;;;;;5.83;3.30;;;5.60;99.90;;;;;;4967886;28;20632;-84
2021/12/02 00:23:58;;;;;;;3.50;3.28;;;5.30;99.90;;;;;;4952664;28;20184;-84
2021/12/02 00:26:25;;;;;;;4.35;3.92;;;5.30;99.90;;;;;;4951948;28;20177;-85
2021/12/02 00:28:53;;;;;;;13.23;4.13;;;5.40;99.90;;;;;;4950602;28;20170;-84
2021/12/02 00:31:21;;;;;;;4.45;3.55;;;5.20;99.90;;;;;;4953962;28;20182;-84
2021/12/02 00:33:50;;;;;;;10.30;3.55;;;5.10;99.90;;;;;;4951961;28;20578;-84
2021/12/02 00:36:17;;;;;;;6.75;3.85;;;5.20;99.90;;;;;;4950783;28;20170;-84
2021/12/02 00:38:44;;;;;;;6.75;3.63;;;5.00;99.90;;;;;;4950840;28;20167;-84
2021/12/02 00:41:22;;;;;;;7.00;3.25;;;5.40;99.90;;;;;;4961330;28;20170;-84
2021/12/02 00:43:50;;;;;;;7.03;3.30;;;5.40;99.90;;;;;;4961057;28;20167;-85
2021/12/02 00:46:21;;;;;;;7.88;4.00;;;5.40;99.90;;;;;;4951276;28;20186;-84
2021/12/02 00:48:47;;;;;;;7.00;4.55;;;5.00;99.90;;;;;;4953581;28;20166;-85
2021/12/02 00:51:18;;;;;;;4.75;4.25;;;5.40;99.90;;;;;;4952661;28;20179;-84
2021/12/02 00:53:52;;;;;;;5.80;4.25;;;5.40;99.90;;;;;;4968860;28;20253;-85
2021/12/02 00:56:24;;;;;;;17.60;6.30;;;5.30;99.90;;;;;;4956208;28;20170;-84
2021/12/02 00:58:51;;;;;;;11.85;5.40;;;5.30;99.90;;;;;;4989070;28;20252;-84
2021/12/02 01:01:19;;;;;;;4.00;3.80;;;5.30;99.90;;;;;;4989913;28;20698;-85
2021/12/02 01:03:48;;;;;;;6.63;4.35;;;5.30;99.90;;;;;;4974250;28;20177;-82
2021/12/02 01:06:14;;;;;;;4.82;4.22;;;5.30;99.90;;;;;;4978866;28;20173;-83
2021/12/02 01:08:43;;;;;;;5.83;4.63;;;5.30;99.90;;;;;;4982806;28;20158;-82
2021/12/02 01:11:10;;;;;;;6.68;4.95;;;5.30;99.90;;;;;;5002318;28;20165;-84
2021/12/02 01:13:38;;;;;;;7.65;4.07;;;5.30;99.90;;;;;;4983372;28;20513;-84
2021/12/02 01:16:04;;;;;;;6.93;4.88;;;5.20;99.90;;;;;;4979448;28;20173;-83
2021/12/02 01:18:30;;;;;;;7.22;4.75;;;5.30;99.90;;;;;;4961412;28;20170;-85
2021/12/02 01:21:00;;;;;;;8.43;4.73;;;5.30;99.90;;;;;;4971629;28;20177;-84
2021/12/02 01:23:33;;;;;;;13.23;4.30;;;5.30;99.90;;;;;;4970643;28;20424;-83
2021/12/02 01:26:02;;;;;;;3.67;3.30;;;5.30;99.90;;;;;;4981879;28;20229;-83
2021/12/02 01:28:31;;;;;;;5.60;3.40;;;5.30;99.90;;;;;;4979385;28;20170;-84
2021/12/02 01:31:00;;;;;;;7.82;3.28;;;5.30;99.90;;;;;;4983320;28;20178;-83
2021/12/02 01:33:27;;;;;;;3.97;3.63;;;5.40;99.90;;;;;;4965870;28;20855;-85
2021/12/02 01:35:59;;;;;;;5.90;3.30;;;5.00;99.90;;;;;;4979627;28;20215;-84
2021/12/02 01:38:26;;;;;;;9.98;3.50;;;5.40;99.90;;;;;;4987315;28;20181;-83
2021/12/02 01:40:54;;;;;;;4.22;3.35;;;5.40;99.90;;;;;;4963958;28;20226;-83
2021/12/02 01:43:22;;;;;;;4.00;3.55;;;5.40;99.90;;;;;;4968081;28;20267;-83
2021/12/02 01:45:50;;;;;;;8.93;3.80;;;5.40;99.90;;;;;;4989517;28;20178;-84
2021/12/02 01:48:24;;;;;;;3.85;3.40;;;5.00;99.90;;;;;;4969376;28;20258;-85
2021/12/02 01:51:05;;;;;;;6.32;3.55;;;5.40;99.90;;;;;;4983091;28;20174;-85
2021/12/02 01:53:33;;;;;;;5.85;3.47;;;5.20;99.90;;;;;;4981206;28;20229;-86
2021/12/02 01:56:19;;;;;;;4.88;4.47;;;5.00;99.90;;;;;;4983002;28;20479;-82
2021/12/02 01:58:50;;;;;;;7.47;4.35;;;5.40;99.90;;;;;;4961961;28;20185;-83
2021/12/02 02:01:26;;;;;;;16.83;4.50;;;4.90;99.90;;;;;;4960966;28;20663;-83
2021/12/02 02:03:53;;;;;;;7.80;4.00;;;5.50;99.90;;;;;;4976911;28;20245;-82
2021/12/02 02:06:27;;;;;;;6.18;3.33;;;5.40;99.90;;;;;;4981480;28;20243;-83
2021/12/02 02:08:54;;;;;;;4.63;4.03;;;5.50;99.90;;;;;;4986965;28;20170;-84
2021/12/02 02:11:20;;;;;;;13.90;4.60;;;5.60;99.90;;;;;;4972824;28;20170;-83
2021/12/02 02:13:46;;;;;;;4.83;4.43;;;5.60;99.90;;;;;;4984854;28;20225;-84
2021/12/02 02:16:11;;;;;;;7.30;4.90;;;5.40;99.90;;;;;;4967110;28;20196;-84
2021/12/02 02:18:38;;;;;;;7.77;4.40;;;5.50;99.90;;;;;;4963406;28;20205;-83
2021/12/02 02:21:06;;;;;;;6.28;3.83;;;5.40;99.90;;;;;;4978384;28;20170;-84
2021/12/02 02:23:37;;;;;;;12.00;4.43;;;5.50;99.90;;;;;;4995031;28;20165;-83
2021/12/02 02:26:04;;;;;;;4.80;4.40;;;5.50;99.90;;;;;;5000598;28;20162;-84
2021/12/02 02:28:32;;;;;;;3.80;3.38;;;5.50;99.90;;;;;;4979943;28;20184;-84
2021/12/02 02:30:58;;;;;;;5.35;3.53;;;5.40;99.90;;;;;;4979204;28;20174;-84
2021/12/02 02:33:24;;;;;;;3.83;3.00;;;5.40;99.90;;;;;;4981598;28;20264;-84
2021/12/02 02:35:50;;;;;;;4.93;3.30;;;5.80;99.90;;;;;;4990856;28;20165;-84
2021/12/02 02:38:16;;;;;;;3.70;3.50;;;5.30;99.90;;;;;;4991630;28;20240;-84
2021/12/02 02:40:45;;;;;;;4.03;3.17;;;5.30;99.90;;;;;;4990055;28;20823;-84
2021/12/02 02:43:12;;;;;;;5.25;2.95;;;5.30;99.90;;;;;;4978331;28;20546;-83
2021/12/02 02:45:39;;;;;;;6.53;3.78;;;5.30;99.90;;;;;;4955730;28;20178;-84
2021/12/02 02:48:07;;;;;;;5.03;2.30;;;6.30;99.90;;;;;;4973677;28;20548;-85
2021/12/02 02:50:33;;;;;;;4.18;2.30;;;5.20;99.90;;;;;;4960402;28;20669;-83
2021/12/02 02:53:03;;;;;;;4.17;2.37;;;4.40;99.90;;;;;;4956085;28;20242;-84
2021/12/02 02:55:29;;;;;;;2.45;2.20;;;5.30;99.90;;;;;;4956176;28;20177;-84
2021/12/02 03:00:31;;;;;;;3.55;2.05;;;5.40;99.90;;;;;;4975615;28;20538;-83
2021/12/02 03:08:19;;;;;;;3.03;2.63;;;5.10;99.90;;;;;;4973456;28;20333;-82
2021/12/02 03:10:56;;;;;;;3.58;2.30;;;4.90;99.90;;;;;;4971763;28;20186;-82
2021/12/02 03:13:37;;;;;;;4.03;1.80;;;5.10;99.90;;;;;;4972720;28;20200;-83
2021/12/02 03:18:47;;;;;;;4.60;2.13;;;5.10;99.90;;;;;;4977509;28;20193;-83
2021/12/02 03:24:34;;;;;;;3.47;1.98;;;5.00;99.90;;;;;;4982342;28;20216;-82
2021/12/02 03:27:00;;;;;;;6.77;2.50;;;5.00;99.90;;;;;;4967555;28;20173;-83
2021/12/02 03:29:44;;;;;;;5.47;2.50;;;4.90;99.90;;;;;;4966838;28;20193;-83
2021/12/02 03:32:29;;;;;;;3.33;2.28;;;6.10;99.90;;;;;;4970210;28;20256;-84
2021/12/02 03:34:56;;;;;;;7.70;2.30;;;4.90;99.90;;;;;;4982266;28;20169;-83
2021/12/02 03:37:22;;;;;;;2.72;2.47;;;4.40;99.90;;;;;;4977930;28;20176;-83
2021/12/02 03:39:47;;;;;;;2.77;2.17;;;4.80;99.90;;;;;;4973522;28;20253;-85
2021/12/02 03:42:13;;;;;;;7.53;2.03;;;;;;;;;;4960618;28;20272;-83
2021/12/02 03:44:39;;;;;;;5.45;1.70;;;5.00;99.90;;;;;;4962359;28;20169;-83
2021/12/02 03:47:05;;;;;;;4.00;2.00;;;6.10;99.90;;;;;;4980272;28;20158;-83
2021/12/02 03:49:30;;;;;;;8.00;2.63;;;5.10;99.90;;;;;;4972712;28;20170;-82
2021/12/02 03:51:56;;;;;;;3.87;3.03;;;6.30;99.90;;;;;;4969746;28;20224;-79
2021/12/02 03:54:22;;;;;;;4.23;2.30;;;7.60;99.90;;;;;;4954619;28;20648;-83
2021/12/02 03:56:47;;;;;;;3.33;2.30;;;6.80;99.90;;;;;;4970557;28;20410;-83
2021/12/02 03:59:14;;;;;;;2.40;1.83;;;5.90;99.90;;;;;;4974077;28;20925;-83
2021/12/02 04:01:39;;;;;;;2.25;1.50;;;5.00;99.90;;;;;;4973299;28;20166;-84
2021/12/02 04:04:05;;;;;;;1.60;1.50;;;5.00;99.90;;;;;;4972567;28;20177;-83
2021/12/02 04:06:31;;;;;;;3.30;1.47;;;5.00;99.90;;;;;;4953152;28;20174;-84
2021/12/02 04:09:06;;;;;;;2.00;1.80;;;4.90;99.90;;;;;;4953102;28;20592;-83
2021/12/02 04:17:04;;;;;;;2.33;2.03;;;4.80;99.90;;;;;;4974282;28;20185;-83
2021/12/02 04:19:29;;;;;;;5.97;1.92;;;4.80;99.90;;;;;;4981015;28;20248;-83
2021/12/02 04:21:58;;;;;;;2.10;2.10;;;4.90;99.90;;;;;;4986544;28;20193;-84
2021/12/02 04:24:24;;;;;;;1.90;1.80;;;4.30;99.90;;;;;;4975136;28;20170;-83
2021/12/02 04:26:50;;;;;;;2.55;2.33;;;4.90;99.90;;;;;;4992034;28;20256;-84
2021/12/02 04:29:17;;;;;;;6.50;2.63;;;4.80;99.90;;;;;;4994793;28;20197;-85
2021/12/02 04:31:47;;;;;;;2.42;2.22;;;4.80;99.90;;;;;;4975420;28;20165;-83
2021/12/02 04:34:13;;;;;;;1.95;1.95;;;4.70;99.90;;;;;;4974837;28;20203;-84
2021/12/02 04:36:39;;;;;;;2.78;2.33;;;5.30;99.90;;;;;;4970264;28;20166;-84
2021/12/02 04:39:05;;;;;;;2.20;2.20;;;4.60;99.90;;;;;;4982402;28;20246;-83
2021/12/02 04:41:31;;;;;;;7.93;1.70;;;4.40;99.90;;;;;;4962304;28;20174;-83
2021/12/02 04:43:58;;;;;;;1.95;1.80;;;4.50;99.90;;;;;;4962387;28;20285;-84
2021/12/02 04:46:24;;;;;;;2.63;2.30;;;4.60;99.90;;;;;;4976887;28;20216;-82
2021/12/02 04:48:49;;;;;;;4.03;2.80;;;4.50;99.90;;;;;;4986118;28;20224;-82
2021/12/02 04:51:15;;;;;;;4.53;2.03;;;4.40;99.90;;;;;;4972876;28;20169;-81
2021/12/02 04:53:41;;;;;;;3.20;1.27;;;4.60;99.90;;;;;;4991233;28;20316;-83
2021/12/02 04:56:06;;;;;;;1.93;1.73;;;4.60;99.90;;;;;;4972045;28;20173;-83
2021/12/02 04:58:32;;;;;;;1.87;1.70;;;4.60;99.90;;;;;;4974195;28;20651;-83
2021/12/02 05:00:58;;;;;;;2.27;1.50;;;4.60;99.90;;;;;;4989104;28;20173;-83
2021/12/02 05:03:24;;;;;;;1.75;1.65;;;4.20;99.90;;;;;;4985256;28;20185;-84
2021/12/02 05:05:50;;;;;;;2.93;1.30;;;4.40;99.90;;;;;;4972524;28;20169;-83
2021/12/02 05:08:16;;;;;;;2.57;1.90;;;4.40;99.90;;;;;;4976350;28;20486;-83
2021/12/02 05:10:41;;;;;;;2.60;1.60;;;3.50;99.90;;;;;;4976878;28;20174;-84
2021/12/02 05:13:09;;;;;;;1.60;1.60;;;4.30;99.90;;;;;;4991388;28;20200;-85
2021/12/02 05:15:34;;;;;;;4.05;1.50;;;4.40;99.90;;;;;;4991193;28;20215;-84
2021/12/02 05:18:00;;;;;;;1.60;1.50;;;4.50;99.90;;;;;;4974797;28;20176;-84
2021/12/02 05:20:26;;;;;;;1.60;1.50;;;4.40;99.90;;;;;;4990063;28;20177;-77
2021/12/02 05:22:53;;;;;;;3.27;1.50;;;4.30;99.90;;;;;;4975333;28;20269;-85
2021/12/02 05:25:18;;;;;;;1.67;1.67;;;4.30;99.90;;;;;;4969483;28;20825;-84
2021/12/02 05:27:44;;;;;;;1.47;1.43;;;4.40;99.90;;;;;;4971499;28;20265;-82
2021/12/02 05:30:10;;;;;;;3.50;1.40;;;4.40;99.90;;;;;;4977130;28;20250;-83
2021/12/02 05:32:36;;;;;;;1.65;1.58;;;4.50;99.90;;;;;;4978657;28;20484;-83
2021/12/02 05:35:03;;;;;;;3.33;1.80;;;4.80;99.90;;;;;;4959017;28;20201;-79
2021/12/02 05:37:29;;;;;;;2.08;1.98;;;4.50;99.90;;;;;;4975725;28;20237;-83
2021/12/02 05:39:54;;;;;;;2.13;2.00;;;4.90;99.90;;;;;;4958733;28;20212;-82
2021/12/02 05:42:20;;;;;;;1.60;1.47;;;4.50;99.90;;;;;;4978557;28;20182;-83
2021/12/02 05:44:46;;;;;;;1.93;1.83;;;4.40;99.90;;;;;;4983760;28;20204;-84
2021/12/02 05:47:12;;;;;;;2.03;1.93;;;4.70;99.90;;;;;;4969252;28;20178;-83
2021/12/02 05:49:37;;;;;;;3.63;2.60;;;3.80;99.90;;;;;;4981129;28;20235;-83
2021/12/02 05:52:03;;;;;;;2.40;2.30;;;4.30;99.90;;;;;;4992049;28;20464;-83
2021/12/02 05:54:29;;;;;;;2.80;2.70;;;4.30;99.90;;;;;;4980355;28;20646;-83
2021/12/02 05:56:54;;;;;;;2.90;2.80;;;4.10;99.90;;;;;;4987195;28;20479;-82
2021/12/02 05:59:20;;;;;;;3.20;3.00;;;4.10;99.90;;;;;;4997428;28;20223;-80
2021/12/02 06:01:53;;;;;;;4.00;3.20;;;4.80;99.90;;;;;;5003390;28;20555;-83
2021/12/02 06:04:19;;;;;;;2.90;2.70;;;3.60;99.90;;;;;;5003860;28;20452;-83
2021/12/02 06:06:44;;;;;;;3.30;3.00;;;4.20;99.90;;;;;;4991210;28;20181;-82
2021/12/02 06:09:10;;;;;;;3.30;3.20;;;4.10;99.90;;;;;;4269097;28;10000702;-81
2021/12/02 06:11:36;;;;;;;4.10;3.30;;;4.20;99.90;;;;;;4960105;28;20499;-77
2021/12/02 06:14:03;;;;;;;4.17;3.97;;;4.20;99.90;;;;;;4964550;28;20618;-80
2021/12/02 06:16:29;;;;;;;3.97;3.58;;;4.10;99.90;;;;;;4962839;28;20162;-80
2021/12/02 06:18:54;;;;;;;8.03;6.50;;;4.20;99.90;;;;;;4964722;28;20250;-79
2021/12/02 06:21:20;;;;;;;4.30;3.97;;;6.40;99.90;;;;;;4959906;28;20742;-80
2021/12/02 06:23:46;;;;;;;3.93;3.73;;;4.00;99.90;;;;;;4982679;28;20178;-81
2021/12/02 06:26:12;;;;;;;6.63;4.27;;;4.20;99.90;;;;;;4970798;28;20411;-81
2021/12/02 06:28:37;;;;;;;4.70;4.30;;;4.20;99.90;;;;;;4951785;28;20181;-81
2021/12/02 06:31:06;;;;;;;6.23;4.77;;;4.70;99.90;;;;;;4950928;28;20182;-80
2021/12/02 06:33:32;;;;;;;5.90;4.25;;;4.30;99.90;;;;;;4967096;28;20676;-80
2021/12/02 06:35:58;;;;;;;5.80;5.28;;;4.30;99.90;;;;;;4967681;28;20285;-81
2021/12/02 06:38:23;;;;;;;4.37;4.07;;;4.40;99.90;;;;;;4949816;28;20764;-76
2021/12/02 06:40:50;;;;;;;5.03;4.57;;;4.50;99.90;;;;;;4950196;28;20616;-81
2021/12/02 06:43:16;;;;;;;6.85;5.32;;;4.50;99.90;;;;;;4968678;28;20527;-79
2021/12/02 06:45:42;;;;;;;5.68;5.28;;;4.50;99.90;;;;;;4966499;28;20197;-73
2021/12/02 06:48:08;;;;;;;8.23;6.15;;;4.50;99.90;;;;;;4969606;28;20166;-80
2021/12/02 06:50:36;;;;;;;6.80;5.90;;;4.40;99.90;;;;;;4952269;28;20253;-80
2021/12/02 06:53:02;;;;;;;4.88;4.50;;;3.70;99.90;;;;;;4952560;28;20535;-81
2021/12/02 06:55:28;;;;;;;4.88;4.45;;;4.70;99.90;;;;;;4970282;28;20207;-79
2021/12/02 06:57:53;;;;;;;6.57;4.63;;;4.50;99.90;;;;;;4970503;28;20658;-80
2021/12/02 07:00:21;;;;;;;3.63;3.43;;;4.40;99.90;;;;;;4969949;28;20166;-80
2021/12/02 07:02:47;;;;;;;4.70;4.47;;;4.40;99.90;;;;;;4969973;28;20713;-80
2021/12/02 07:05:15;;;;;;;3.90;3.60;;;4.40;99.90;;;;;;4989608;28;20181;-78
2021/12/02 07:07:42;;;;;;;5.95;5.50;;;4.50;99.90;;;;;;4989023;28;20323;-80
2021/12/02 07:10:18;;;;;;;6.45;5.93;;;4.20;99.90;;;;;;4971641;28;20170;-80
2021/12/02 07:12:47;;;;;;;6.10;5.03;;;4.50;99.90;;;;;;4971608;28;20219;-78
2021/12/02 07:17:42;;;;;;;9.38;7.63;;;4.00;99.90;;;;;;4989627;28;20177;-80
2021/12/02 07:20:08;;;;;;;8.52;7.72;;;4.40;99.90;;;;;;4989182;28;20161;-81
2021/12/02 07:22:34;;;;;;;12.50;7.60;;;4.40;99.90;;;;;;4989490;28;20232;-79
2021/12/02 07:25:00;;;;;;;10.13;8.03;;;4.30;99.90;;;;;;4978827;28;20618;-81
2021/12/02 07:27:25;;;;;;;9.10;8.23;;;4.40;99.90;;;;;;4976294;28;20192;-81
2021/12/02 07:29:51;;;;;;;11.70;10.60;;;4.40;99.90;;;;;;4988311;28;20161;-81
2021/12/02 07:32:17;;;;;;;10.63;9.00;;;4.40;99.90;;;;;;4972669;28;20205;-79
2021/12/02 07:34:44;;;;;;;7.80;7.10;;;4.40;99.90;;;;;;4990849;28;20635;-80
2021/12/02 07:37:20;;;;;;;8.95;7.82;;;4.40;99.90;;;;;;4970963;28;20543;-82
2021/12/02 07:39:45;;;;;;;8.55;7.95;;;5.20;99.90;;;;;;4993897;28;20157;-80
2021/12/02 07:42:11;;;;;;;7.73;7.13;;;4.40;99.90;;;;;;4998053;28;20245;-80
2021/12/02 07:44:37;;;;;;;7.57;6.83;;;4.20;99.90;;;;;;4997265;28;20189;-76
2021/12/02 07:47:05;;;;;;;7.70;5.53;;;4.30;99.90;;;;;;4995228;28;20169;-78
2021/12/02 07:49:31;;;;;;;9.27;6.20;;;3.70;99.90;;;;;;4981904;28;20432;-81
2021/12/02 07:52:00;;;;;;;7.03;6.53;;;4.30;99.90;;;;;;4998422;28;20187;-80
2021/12/02 07:54:27;;;;;;;8.93;7.72;;;4.40;99.90;;;;;;4997404;28;20482;-81
2021/12/02 07:56:53;;;;;;;8.80;7.90;;;5.80;99.90;;;;;;4992190;28;20256;-79
2021/12/02 07:59:19;;;;;;;7.93;7.30;;;4.90;99.90;;;;;;4971329;28;20623;-79
2021/12/02 08:01:46;;;;;;;8.27;7.63;;;4.40;99.90;;;;;;4989934;28;20173;-79
2021/12/02 08:04:12;;;;;;;8.95;8.15;;;4.40;99.90;;;;;;4988865;28;20224;-80
2021/12/02 08:06:37;;;;;;;9.83;8.77;;;4.40;99.90;;;;;;4989221;28;20173;-79
2021/12/02 08:09:05;;;;;;;11.77;8.00;;;4.40;99.90;;;;;;4988688;28;20385;-79
2021/12/02 08:11:32;;;;;;;7.72;7.15;;;4.50;99.90;;;;;;4970865;28;20575;-79
2021/12/02 08:13:58;;;;;;;11.57;8.35;;;4.50;99.90;;;;;;4988041;28;20255;-80
2021/12/02 08:16:23;;;;;;;9.20;8.30;;;4.50;99.90;;;;;;4988129;28;20165;-80
2021/12/02 08:18:49;;;;;;;10.70;8.60;;;4.60;99.90;;;;;;4625141;28;10000132;-80
2021/12/02 08:21:15;;;;;;;7.83;7.23;;;4.60;99.90;;;;;;4973934;28;20253;-81
2021/12/02 08:23:40;;;;;;;7.43;6.93;;;4.00;99.90;;;;;;4966927;28;20182;-81
2021/12/02 08:26:06;;;;;;;7.07;6.30;;;4.60;99.90;;;;;;4948566;28;20644;-79
2021/12/02 08:28:32;;;;;;;8.33;7.53;;;4.70;99.90;;;;;;4981350;28;20264;-79
2021/12/02 08:30:58;;;;;;;5.40;5.10;;;4.60;99.90;;;;;;4990015;28;20232;-81
2021/12/02 08:33:24;;;;;;;5.82;5.40;;;4.90;99.90;;;;;;4981958;28;20247;-80
2021/12/02 08:35:50;;;;;;;5.63;5.10;;;4.40;99.90;;;;;;4987114;28;20170;-79
2021/12/02 08:38:18;;;;;;;6.37;5.77;;;4.40;99.90;;;;;;4986445;28;20196;-77
2021/12/02 08:40:46;;;;;;;6.28;5.75;;;4.40;99.90;;;;;;4971375;28;20209;-81
2021/12/02 08:43:14;;;;;;;5.97;5.47;;;4.70;99.90;;;;;;4966224;28;20997;-79
2021/12/02 08:45:43;;;;;;;6.03;5.72;;;4.50;99.90;;;;;;4965390;28;20200;-79
2021/12/02 08:48:10;;;;;;;5.85;5.43;;;4.40;99.90;;;;;;4966217;28;20170;-81
2021/12/02 08:50:37;;;;;;;5.18;4.90;;;4.40;99.90;;;;;;4966159;28;20209;-80
2021/12/02 08:53:05;;;;;;;5.13;4.72;;;4.40;99.90;;;;;;4973449;28;20224;-80
2021/12/02 08:55:32;;;;;;;4.78;4.38;;;4.40;99.90;;;;;;4973452;28;20177;-81
2021/12/02 08:57:59;;;;;;;4.47;4.07;;;4.30;99.90;;;;;;4970273;28;20785;-75
2021/12/02 09:00:33;;;;;;;5.05;4.60;;;4.40;99.90;;;;;;4994993;28;20535;-80
2021/12/02 09:02:59;;;;;;;3.83;3.63;;;4.50;99.90;;;;;;4971430;28;20274;-79
2021/12/02 09:05:25;;;;;;;4.00;3.70;;;4.80;99.90;;;;;;4964574;28;20224;-79
2021/12/02 09:07:51;;;;;;;3.43;3.33;;;4.50;99.90;;;;;;4973549;28;20735;-80
2021/12/02 09:10:21;;;;;;;3.45;3.10;;;4.40;99.90;;;;;;4984801;28;20181;-82
2021/12/02 09:12:47;;;;;;;3.63;3.40;;;4.50;99.90;;;;;;4978444;28;20252;-81
2021/12/02 09:15:14;;;;;;;4.50;4.10;;;4.60;99.90;;;;;;4959417;28;20317;-82
2021/12/02 09:17:42;;;;;;;4.20;3.78;;;4.50;99.90;;;;;;4965863;28;20188;-80
2021/12/02 09:20:11;;;;;;;3.30;3.20;;;4.60;99.90;;;;;;4971717;28;20213;-82
2021/12/02 09:22:38;;;;;;;5.45;4.13;;;4.60;99.90;;;;;;4984597;28;20193;-79
2021/12/02 09:25:05;;;;;;;3.67;3.42;;;4.60;99.90;;;;;;4983113;28;20189;-81
2021/12/02 09:27:31;;;;;;;3.67;2.55;;;4.70;99.90;;;;;;4974111;28;20178;-77
2021/12/02 09:29:57;;;;;;;4.10;3.90;;;4.30;99.90;;;;;;4977939;28;20192;-80
2021/12/02 09:32:23;;;;;;;4.33;4.00;;;4.60;99.90;;;;;;4984015;28;20586;-80
2021/12/02 09:34:49;;;;;;;3.87;3.67;;;4.30;99.90;;;;;;4984786;28;20672;-80
2021/12/02 09:37:15;;;;;;;3.40;3.17;;;4.50;99.90;;;;;;4984432;28;20188;-81
2021/12/02 09:39:40;;;;;;;3.30;3.30;;;4.40;99.90;;;;;;4967176;28;20443;-82
2021/12/02 09:42:14;;;;;;;2.87;2.87;;;4.50;99.90;;;;;;4985158;28;20428;-80
2021/12/02 09:44:43;;;;;;;4.40;4.00;;;4.40;99.90;;;;;;4985727;28;20161;-81
2021/12/02 09:47:09;;;;;;;3.90;3.58;;;4.50;99.90;;;;;;4959460;28;20208;-80
2021/12/02 09:49:36;;;;;;;3.88;3.72;;;4.50;99.90;;;;;;4964185;28;20220;-79
2021/12/02 09:52:04;;;;;;;4.07;3.78;;;3.80;99.90;;;;;;4959370;28;20263;-81
2021/12/02 09:54:55;;;;;;;2.30;2.30;;;4.40;99.90;;;;;;4969740;28;20228;-80
2021/12/02 09:57:26;;;;;;;1.70;1.70;;;4.40;99.90;;;;;;4988984;28;20193;-81
2021/12/02 09:59:54;;;;;;;2.15;2.05;;;4.40;99.90;;;;;;4991400;28;20164;-78
2021/12/02 10:02:21;;;;;;;2.05;2.00;;;4.40;99.90;;;;;;4973629;28;20166;-82
2021/12/02 10:05:03;;;;;;;1.77;1.77;;;4.40;99.90;;;;;;4980152;28;20188;-80
2021/12/02 10:07:47;;;;;;;2.55;2.55;;;4.60;99.90;;;;;;4954662;28;20232;-79
2021/12/02 10:12:52;;;;;;;2.67;2.67;;;4.70;99.90;;;;;;4991101;28;20506;-82
2021/12/02 10:15:19;;;;;;;2.80;2.70;;;5.60;99.90;;;;;;4991651;28;20404;-80
2021/12/02 10:17:47;;;;;;;1.55;1.45;;;4.90;99.90;;;;;;4991189;28;20176;-83
2021/12/02 10:23:23;;;;;;;2.75;2.55;;;4.90;99.90;;;;;;4991877;28;20199;-81
2021/12/02 10:25:50;;;;;;;2.90;2.80;;;4.90;99.90;;;;;;4974444;28;20180;-76
2021/12/02 10:28:18;;;;;;;2.67;2.65;;;4.90;99.90;;;;;;4992441;28;20173;-79
2021/12/02 10:30:51;;;;;;;2.63;2.50;;;5.10;99.90;;;;;;4974726;28;20220;-79
2021/12/02 10:33:43;;;;;;;3.08;3.05;;;5.30;99.90;;;;;;4993419;28;20205;-80
2021/12/02 10:36:35;;;;;;;3.78;2.75;;;5.30;99.90;;;;;;4982538;28;20264;-80
2021/12/02 10:39:16;;;;;;;3.10;3.10;;;5.10;99.90;;;;;;4983642;28;20583;-79
2021/12/02 10:42:07;;;;;;;2.67;2.58;;;5.00;99.90;;;;;;4992185;28;20608;-79
2021/12/02 10:44:35;;;;;;;2.55;2.45;;;5.00;99.90;;;;;;5006270;28;20517;-80
2021/12/02 10:47:10;;;;;;;3.25;3.08;;;4.80;99.90;;;;;;4985579;28;20393;-81
2021/12/02 10:49:55;;;;;;;4.25;3.85;;;5.80;99.90;;;;;;4972235;28;20177;-80
2021/12/02 10:52:30;;;;;;;3.22;3.03;;;4.90;99.90;;;;;;5017989;23;20228;-80
2021/12/02 10:55:12;;;;;;;3.40;3.30;;;5.30;99.90;;;;;;5009226;28;20164;-81
2021/12/02 10:57:59;;;;;;;3.47;2.97;;;4.90;99.90;;;;;;5007447;28;20220;-81
2021/12/02 11:00:27;;;;;;;4.03;3.72;;;5.00;99.90;;;;;;4988152;28;20170;-79
2021/12/02 11:02:57;;;;;;;3.47;3.28;;;6.80;99.90;;;;;;5008691;28;20172;-81
2021/12/02 11:05:34;;;;;;;4.95;4.75;;;5.00;99.90;;;;;;5007821;28;20173;-80
2021/12/02 11:08:05;;;;;;;4.80;4.60;;;4.90;99.90;;;;;;4990829;28;20183;-80
2021/12/02 11:10:40;;;;;;;5.65;5.28;;;5.40;99.90;;;;;;5008189;28;20188;-80
2021/12/02 11:13:08;;;;;;;9.38;5.55;;;4.80;99.90;;;;;;4988360;28;20208;-79
2021/12/02 11:15:36;;;;;;;9.00;7.07;;;4.90;99.90;;;;;;5008050;28;20169;-79
2021/12/02 11:18:04;;;;;;;4.88;4.45;;;6.90;99.90;;;;;;5007726;28;20176;-79
2021/12/02 11:20:36;;;;;;;4.88;4.57;;;4.50;99.90;;;;;;4990495;28;20521;-78
2021/12/02 11:23:04;;;;;;;4.53;3.75;;;4.80;99.90;;;;;;5007610;28;20184;-78
2021/12/02 11:25:32;;;;;;;4.75;4.45;;;5.10;99.90;;;;;;4992762;28;20357;-79
2021/12/02 11:28:06;;;;;;;2.63;2.53;;;5.80;99.90;;;;;;4991671;28;20546;-77
2021/12/02 11:30:34;;;;;;;2.92;2.72;;;5.20;99.90;;;;;;5008392;28;20556;-80
2021/12/02 11:33:05;;;;;;;2.13;1.98;;;5.30;99.90;;;;;;4992011;28;20230;-80
2021/12/02 11:35:44;;;;;;;4.20;2.08;;;6.20;99.90;;;;;;5009543;28;20586;-80
2021/12/02 11:38:21;;;;;;;1.80;1.70;;;6.20;99.90;;;;;;4991780;28;20192;-79
2021/12/02 11:40:57;;;;;;;3.05;2.00;;;6.30;99.90;;;;;;5009047;28;20169;-80
2021/12/02 11:43:29;;;;;;;1.73;1.60;;;6.00;99.90;;;;;;5008675;28;20169;-80
2021/12/02 11:45:57;;;;;;;1.70;1.70;;;5.30;99.90;;;;;;5008453;28;20227;-79
2021/12/02 11:48:28;;;;;;;3.47;2.63;;;5.60;99.90;;;;;;4991245;28;20192;-75
2021/12/02 11:51:00;;;;;;;2.08;2.05;;;5.30;99.90;;;;;;4991127;28;20169;-80
2021/12/02 11:53:26;;;;;;;1.77;1.75;;;5.40;99.90;;;;;;5009194;28;20231;-82
2021/12/02 11:56:10;;;;;;;1.95;1.75;;;5.30;99.90;;;;;;4991324;28;20188;-83
2021/12/02 11:58:36;;;;;;;4.20;1.35;;;5.40;99.90;;;;;;4991434;28;20235;-84
2021/12/02 12:01:03;;;;;;;33.53;17.92;;;5.30;99.90;;;;;;5008948;28;20177;-82
2021/12/02 12:03:32;;;;;;;1.80;1.80;;;5.10;99.90;;;;;;5012859;28;20597;-80
2021/12/02 12:06:01;;;;;;;3.42;2.05;;;4.80;99.90;;;;;;4994352;28;20161;-80
2021/12/02 12:08:36;;;;;;;1.60;1.60;;;5.10;99.90;;;;;;4986550;28;20230;-79
2021/12/02 12:11:27;;;;;;;1.48;1.40;;;5.10;99.90;;;;;;5008512;28;20661;-81
2021/12/02 12:14:02;;;;;;;2.30;2.20;;;4.90;99.90;;;;;;4990434;28;20319;-81
2021/12/02 12:16:42;;;;;;;3.65;1.90;;;4.90;99.90;;;;;;4989468;28;20164;-81
2021/12/02 12:19:30;;;;;;;1.98;1.80;;;4.10;99.90;;;;;;5008719;28;20230;-81
2021/12/02 12:22:00;;;;;;;4.00;2.25;;;4.70;99.90;;;;;;5008202;28;20168;-82
2021/12/02 12:24:50;;;;;;;2.88;2.88;;;4.90;99.90;;;;;;5008089;28;20227;-79
2021/12/02 12:27:28;;;;;;;2.88;2.67;;;4.60;99.90;;;;;;4990043;28;20180;-80
2021/12/02 12:30:03;;;;;;;2.53;2.47;;;4.40;99.90;;;;;;5007959;28;20175;-81
2021/12/02 12:32:51;;;;;;;2.65;2.45;;;4.40;99.90;;;;;;4989764;28;20723;-82
2021/12/02 12:38:37;;;;;;;2.47;2.40;;;4.40;99.90;;;;;;4987343;28;20272;-81
2021/12/02 12:41:18;;;;;;;1.30;1.30;;;5.90;99.90;;;;;;4975760;28;20565;-80
2021/12/02 12:43:50;;;;;;;5.40;3.15;;;4.30;99.90;;;;;;4970628;28;20228;-81
2021/12/02 12:46:26;;;;;;;2.22;2.03;;;5.40;99.90;;;;;;4970301;28;20537;-83
2021/12/02 12:48:55;;;;;;;2.45;2.00;;;4.40;99.90;;;;;;4970618;28;20260;-81
2021/12/02 12:51:33;;;;;;;1.85;1.85;;;6.30;99.90;;;;;;4976537;28;20176;-80
2021/12/02 12:56:33;;;;;;;1.55;1.55;;;4.20;99.90;;;;;;5003369;28;20228;-78
2021/12/02 12:59:06;;;;;;;1.63;1.55;;;4.80;99.90;;;;;;4978161;28;20180;-82
2021/12/02 13:01:33;;;;;;;2.45;2.10;;;5.30;99.90;;;;;;4996129;28;20178;-81
2021/12/02 13:04:18;;;;;;;2.17;2.07;;;3.70;99.90;;;;;;4290069;28;10000645;-82
2021/12/02 13:06:56;;;;;;;3.33;2.05;;;6.60;99.90;;;;;;4966323;28;20413;-77
2021/12/02 13:09:36;;;;;;;1.90;1.80;;;4.00;99.90;;;;;;4962618;28;20395;-84
2021/12/02 13:12:04;;;;;;;1.40;1.40;;;4.10;99.90;;;;;;4967589;28;20181;-82
2021/12/02 13:14:29;;;;;;;2.28;2.08;;;4.60;99.90;;;;;;4966751;28;20255;-82
2021/12/02 13:16:55;;;;;;;1.87;1.87;;;4.00;99.90;;;;;;4984657;28;20646;-81
2021/12/02 13:19:21;;;;;;;2.57;2.47;;;;;;;;;;4968197;28;20989;-82
2021/12/02 13:21:57;;;;;;;3.50;3.15;;;4.60;99.90;;;;;;4968064;28;20901;-80
2021/12/02 13:24:34;;;;;;;3.38;3.08;;;4.50;99.90;;;;;;4969436;28;20811;-81
2021/12/02 13:27:06;;;;;;;4.00;3.80;;;4.50;99.90;;;;;;4986270;28;20296;-84
2021/12/02 13:29:37;;;;;;;3.47;3.25;;;4.00;99.90;;;;;;4985888;28;20189;-83
2021/12/02 13:32:10;;;;;;;3.30;3.10;;;4.00;99.90;;;;;;4984602;28;20280;-79
2021/12/02 13:34:37;;;;;;;2.90;2.70;;;5.70;99.90;;;;;;4984808;28;20638;-78
2021/12/02 13:37:08;;;;;;;2.90;2.80;;;4.70;99.90;;;;;;4985837;28;20555;-80
2021/12/02 13:39:36;;;;;;;3.13;3.03;;;6.40;99.90;;;;;;4969113;28;20184;-80
2021/12/02 13:42:08;;;;;;;3.58;3.42;;;4.80;99.90;;;;;;4991502;28;20180;-80
2021/12/02 13:44:38;;;;;;;2.05;1.90;;;4.80;99.90;;;;;;4979301;28;20170;-81
2021/12/02 13:47:19;;;;;;;2.88;2.78;;;4.70;99.90;;;;;;4984500;28;20208;-81